sensor_id;sensor_type;location;lat;lon;timestamp;P1;durP1;ratioP1;P2;durP2;ratioP2
5454;SDS011;2750;49.050;9.250;2023-07-08T00:01:57;9.20;;;7.33;;
5454;SDS011;2750;49.050;9.250;2023-07-08T00:07:00;8.60;;;7.70;;
5454;SDS011;2750;49.050;9.250;2023-07-08T00:12:04;9.70;;;7.07;;
5454;SDS011;2750;49.050;9.250;2023-07-08T00:17:12;8.60;;;7.43;;
5454;SDS011;2750;49.050;9.250;2023-07-08T00:22:15;8.90;;;7.30;;
5454;SDS011;2750;49.050;9.250;2023-07-08T00:27:16;8.97;;;7.23;;
5454;SDS011;2750;49.050;9.250;2023-07-08T00:32:18;8.40;;;7.20;;
5454;SDS011;2750;49.050;9.250;2023-07-08T00:37:21;9.47;;;8.27;;
5454;SDS011;2750;49.050;9.250;2023-07-08T00:42:22;9.93;;;7.40;;
5454;SDS011;2750;49.050;9.250;2023-07-08T00:47:25;10.90;;;7.70;;
5454;SDS011;2750;49.050;9.250;2023-07-08T00:52:29;9.03;;;7.07;;
5454;SDS011;2750;49.050;9.250;2023-07-08T00:57:31;9.80;;;8.27;;
5454;SDS011;2750;49.050;9.250;2023-07-08T01:02:38;11.63;;;8.27;;
5454;SDS011;2750;49.050;9.250;2023-07-08T01:07:45;8.27;;;6.77;;
5454;SDS011;2750;49.050;9.250;2023-07-08T01:12:53;10.53;;;7.60;;
5454;SDS011;2750;49.050;9.250;2023-07-08T01:17:58;9.03;;;7.67;;
5454;SDS011;2750;49.050;9.250;2023-07-08T01:23:01;11.30;;;7.83;;
5454;SDS011;2750;49.050;9.250;2023-07-08T01:28:05;10.43;;;7.90;;
5454;SDS011;2750;49.050;9.250;2023-07-08T01:33:07;8.20;;;7.40;;
5454;SDS011;2750;49.050;9.250;2023-07-08T01:38:18;9.67;;;7.37;;
5454;SDS011;2750;49.050;9.250;2023-07-08T01:43:25;7.90;;;6.60;;
5454;SDS011;2750;49.050;9.250;2023-07-08T01:48:26;8.43;;;7.30;;
5454;SDS011;2750;49.050;9.250;2023-07-08T01:53:36;11.47;;;7.67;;
5454;SDS011;2750;49.050;9.250;2023-07-08T01:58:40;8.87;;;7.97;;
5454;SDS011;2750;49.050;9.250;2023-07-08T02:03:42;9.00;;;7.10;;
5454;SDS011;2750;49.050;9.250;2023-07-08T02:08:47;9.60;;;7.40;;
5454;SDS011;2750;49.050;9.250;2023-07-08T02:13:50;11.90;;;9.57;;
5454;SDS011;2750;49.050;9.250;2023-07-08T02:18:51;11.33;;;9.00;;
5454;SDS011;2750;49.050;9.250;2023-07-08T02:23:54;12.30;;;9.67;;
5454;SDS011;2750;49.050;9.250;2023-07-08T02:28:55;14.63;;;10.47;;
5454;SDS011;2750;49.050;9.250;2023-07-08T02:33:57;13.77;;;10.03;;
5454;SDS011;2750;49.050;9.250;2023-07-08T02:39:00;10.97;;;8.33;;
5454;SDS011;2750;49.050;9.250;2023-07-08T02:44:01;12.23;;;7.83;;
5454;SDS011;2750;49.050;9.250;2023-07-08T02:49:03;12.20;;;9.83;;
5454;SDS011;2750;49.050;9.250;2023-07-08T02:54:07;13.17;;;9.57;;
5454;SDS011;2750;49.050;9.250;2023-07-08T02:59:08;15.63;;;10.37;;
5454;SDS011;2750;49.050;9.250;2023-07-08T03:04:10;14.00;;;10.47;;
5454;SDS011;2750;49.050;9.250;2023-07-08T03:09:14;13.73;;;10.40;;
5454;SDS011;2750;49.050;9.250;2023-07-08T03:14:15;9.00;;;7.23;;
5454;SDS011;2750;49.050;9.250;2023-07-08T03:19:17;11.40;;;9.30;;
5454;SDS011;2750;49.050;9.250;2023-07-08T03:24:21;11.70;;;9.23;;
5454;SDS011;2750;49.050;9.250;2023-07-08T03:29:22;11.13;;;8.40;;
5454;SDS011;2750;49.050;9.250;2023-07-08T03:34:24;10.87;;;8.20;;
5454;SDS011;2750;49.050;9.250;2023-07-08T03:39:27;11.83;;;7.97;;
5454;SDS011;2750;49.050;9.250;2023-07-08T03:44:28;9.80;;;7.50;;
5454;SDS011;2750;49.050;9.250;2023-07-08T03:49:30;10.03;;;7.87;;
5454;SDS011;2750;49.050;9.250;2023-07-08T03:54:33;10.40;;;8.07;;
5454;SDS011;2750;49.050;9.250;2023-07-08T03:59:34;9.80;;;7.37;;
5454;SDS011;2750;49.050;9.250;2023-07-08T04:04:36;9.03;;;7.47;;
5454;SDS011;2750;49.050;9.250;2023-07-08T04:09:39;11.17;;;7.83;;
5454;SDS011;2750;49.050;9.250;2023-07-08T04:14:43;10.70;;;8.40;;
5454;SDS011;2750;49.050;9.250;2023-07-08T04:19:45;9.30;;;8.10;;
5454;SDS011;2750;49.050;9.250;2023-07-08T04:24:48;10.03;;;8.23;;
5454;SDS011;2750;49.050;9.250;2023-07-08T04:29:49;12.40;;;8.73;;
5454;SDS011;2750;49.050;9.250;2023-07-08T04:34:51;9.77;;;7.73;;
5454;SDS011;2750;49.050;9.250;2023-07-08T04:39:54;10.00;;;7.53;;
5454;SDS011;2750;49.050;9.250;2023-07-08T04:44:55;10.80;;;7.97;;
5454;SDS011;2750;49.050;9.250;2023-07-08T04:49:57;9.37;;;7.63;;
5454;SDS011;2750;49.050;9.250;2023-07-08T04:55:00;8.80;;;7.03;;
5454;SDS011;2750;49.050;9.250;2023-07-08T05:00:01;11.63;;;8.43;;
5454;SDS011;2750;49.050;9.250;2023-07-08T05:05:07;11.40;;;8.07;;
5454;SDS011;2750;49.050;9.250;2023-07-08T05:10:11;11.40;;;8.27;;
5454;SDS011;2750;49.050;9.250;2023-07-08T05:15:12;10.00;;;7.17;;
5454;SDS011;2750;49.050;9.250;2023-07-08T05:20:14;9.82;;;7.55;;
5454;SDS011;2750;49.050;9.250;2023-07-08T05:25:19;9.30;;;8.18;;
5454;SDS011;2750;49.050;9.250;2023-07-08T05:30:21;8.70;;;7.68;;
5454;SDS011;2750;49.050;9.250;2023-07-08T05:35:23;9.82;;;8.23;;
5454;SDS011;2750;49.050;9.250;2023-07-08T05:40:26;9.32;;;7.95;;
5454;SDS011;2750;49.050;9.250;2023-07-08T05:45:27;9.95;;;8.95;;
5454;SDS011;2750;49.050;9.250;2023-07-08T05:50:30;9.93;;;8.93;;
5454;SDS011;2750;49.050;9.250;2023-07-08T05:55:33;12.10;;;8.80;;
5454;SDS011;2750;49.050;9.250;2023-07-08T06:00:34;11.05;;;8.75;;
5454;SDS011;2750;49.050;9.250;2023-07-08T06:05:36;8.52;;;7.15;;
5454;SDS011;2750;49.050;9.250;2023-07-08T06:10:42;9.77;;;7.85;;
5454;SDS011;2750;49.050;9.250;2023-07-08T06:15:44;8.48;;;6.82;;
5454;SDS011;2750;49.050;9.250;2023-07-08T06:20:52;8.05;;;7.22;;
5454;SDS011;2750;49.050;9.250;2023-07-08T06:25:55;10.45;;;8.10;;
5454;SDS011;2750;49.050;9.250;2023-07-08T06:30:57;11.60;;;8.50;;
5454;SDS011;2750;49.050;9.250;2023-07-08T06:35:59;9.85;;;8.68;;
5454;SDS011;2750;49.050;9.250;2023-07-08T06:41:02;10.63;;;9.23;;
5454;SDS011;2750;49.050;9.250;2023-07-08T06:46:03;8.93;;;8.02;;
5454;SDS011;2750;49.050;9.250;2023-07-08T06:51:06;8.75;;;7.90;;
5454;SDS011;2750;49.050;9.250;2023-07-08T06:56:09;10.18;;;9.27;;
5454;SDS011;2750;49.050;9.250;2023-07-08T07:01:10;9.73;;;8.73;;
5454;SDS011;2750;49.050;9.250;2023-07-08T07:06:12;10.60;;;8.75;;
5454;SDS011;2750;49.050;9.250;2023-07-08T07:11:15;9.73;;;8.70;;
5454;SDS011;2750;49.050;9.250;2023-07-08T07:16:19;10.02;;;8.20;;
5454;SDS011;2750;49.050;9.250;2023-07-08T07:21:20;9.95;;;8.98;;
5454;SDS011;2750;49.050;9.250;2023-07-08T07:26:23;9.20;;;8.30;;
5454;SDS011;2750;49.050;9.250;2023-07-08T07:31:25;9.38;;;8.48;;
5454;SDS011;2750;49.050;9.250;2023-07-08T07:36:27;8.98;;;7.70;;
5454;SDS011;2750;49.050;9.250;2023-07-08T07:41:30;8.23;;;7.43;;
5454;SDS011;2750;49.050;9.250;2023-07-08T07:46:31;12.00;;;8.18;;
5454;SDS011;2750;49.050;9.250;2023-07-08T07:51:33;10.05;;;8.05;;
5454;SDS011;2750;49.050;9.250;2023-07-08T07:56:36;8.52;;;7.65;;
5454;SDS011;2750;49.050;9.250;2023-07-08T08:01:37;8.80;;;7.35;;
5454;SDS011;2750;49.050;9.250;2023-07-08T08:06:41;9.82;;;7.65;;
5454;SDS011;2750;49.050;9.250;2023-07-08T08:11:43;10.85;;;7.70;;
5454;SDS011;2750;49.050;9.250;2023-07-08T08:16:45;9.13;;;7.53;;
5454;SDS011;2750;49.050;9.250;2023-07-08T08:21:46;8.27;;;6.97;;
5454;SDS011;2750;49.050;9.250;2023-07-08T08:26:49;7.85;;;7.05;;
5454;SDS011;2750;49.050;9.250;2023-07-08T08:31:51;9.52;;;7.63;;
5454;SDS011;2750;49.050;9.250;2023-07-08T08:36:54;9.65;;;7.40;;
5454;SDS011;2750;49.050;9.250;2023-07-08T08:41:57;9.30;;;8.02;;
5454;SDS011;2750;49.050;9.250;2023-07-08T08:47:01;9.75;;;7.38;;
5454;SDS011;2750;49.050;9.250;2023-07-08T08:52:09;9.25;;;7.47;;
5454;SDS011;2750;49.050;9.250;2023-07-08T08:57:14;8.25;;;7.45;;
5454;SDS011;2750;49.050;9.250;2023-07-08T09:02:30;9.50;;;7.22;;
5454;SDS011;2750;49.050;9.250;2023-07-08T09:07:37;9.50;;;7.70;;
5454;SDS011;2750;49.050;9.250;2023-07-08T09:12:46;8.80;;;7.75;;
5454;SDS011;2750;49.050;9.250;2023-07-08T09:17:51;9.48;;;8.65;;
5454;SDS011;2750;49.050;9.250;2023-07-08T09:22:59;8.95;;;8.05;;
5454;SDS011;2750;49.050;9.250;2023-07-08T09:28:08;8.00;;;7.30;;
5454;SDS011;2750;49.050;9.250;2023-07-08T09:33:09;8.52;;;6.70;;
5454;SDS011;2750;49.050;9.250;2023-07-08T09:38:13;11.88;;;7.40;;
5454;SDS011;2750;49.050;9.250;2023-07-08T09:43:24;7.68;;;6.93;;
5454;SDS011;2750;49.050;9.250;2023-07-08T09:48:27;8.65;;;7.53;;
5454;SDS011;2750;49.050;9.250;2023-07-08T09:53:30;6.63;;;5.90;;
5454;SDS011;2750;49.050;9.250;2023-07-08T09:58:34;7.60;;;6.30;;
5454;SDS011;2750;49.050;9.250;2023-07-08T10:03:37;7.55;;;6.75;;
5454;SDS011;2750;49.050;9.250;2023-07-08T10:08:40;10.68;;;6.82;;
5454;SDS011;2750;49.050;9.250;2023-07-08T10:13:45;7.70;;;6.57;;
5454;SDS011;2750;49.050;9.250;2023-07-08T10:18:48;7.35;;;6.57;;
5454;SDS011;2750;49.050;9.250;2023-07-08T10:23:53;7.10;;;6.28;;
5454;SDS011;2750;49.050;9.250;2023-07-08T10:29:08;6.15;;;5.63;;
5454;SDS011;2750;49.050;9.250;2023-07-08T10:34:23;6.53;;;5.93;;
5454;SDS011;2750;49.050;9.250;2023-07-08T10:45:09;6.03;;;5.35;;
5454;SDS011;2750;49.050;9.250;2023-07-08T10:50:19;7.82;;;5.82;;
5454;SDS011;2750;49.050;9.250;2023-07-08T10:55:32;7.78;;;6.00;;
5454;SDS011;2750;49.050;9.250;2023-07-08T11:00:45;7.25;;;6.28;;
5454;SDS011;2750;49.050;9.250;2023-07-08T11:05:55;6.03;;;5.43;;
5454;SDS011;2750;49.050;9.250;2023-07-08T11:11:03;6.15;;;5.55;;
5454;SDS011;2750;49.050;9.250;2023-07-08T11:16:10;7.15;;;5.57;;
5454;SDS011;2750;49.050;9.250;2023-07-08T11:21:17;6.20;;;5.60;;
5454;SDS011;2750;49.050;9.250;2023-07-08T11:26:26;7.40;;;5.55;;
5454;SDS011;2750;49.050;9.250;2023-07-08T11:31:32;5.90;;;5.30;;
5454;SDS011;2750;49.050;9.250;2023-07-08T11:36:35;7.40;;;5.57;;
5454;SDS011;2750;49.050;9.250;2023-07-08T11:41:38;6.22;;;5.50;;
5454;SDS011;2750;49.050;9.250;2023-07-08T11:46:52;9.32;;;5.53;;
5454;SDS011;2750;49.050;9.250;2023-07-08T11:51:55;6.15;;;5.38;;
5454;SDS011;2750;49.050;9.250;2023-07-08T11:57:00;6.85;;;4.90;;
5454;SDS011;2750;49.050;9.250;2023-07-08T12:02:12;7.18;;;5.50;;
5454;SDS011;2750;49.050;9.250;2023-07-08T12:07:16;8.02;;;4.90;;
5454;SDS011;2750;49.050;9.250;2023-07-08T12:12:21;6.50;;;5.20;;
5454;SDS011;2750;49.050;9.250;2023-07-08T12:17:27;7.80;;;5.80;;
5454;SDS011;2750;49.050;9.250;2023-07-08T12:22:29;5.90;;;5.30;;
5454;SDS011;2750;49.050;9.250;2023-07-08T12:27:31;8.95;;;5.00;;
5454;SDS011;2750;49.050;9.250;2023-07-08T12:32:34;6.90;;;5.97;;
5454;SDS011;2750;49.050;9.250;2023-07-08T12:37:35;5.75;;;5.25;;
5454;SDS011;2750;49.050;9.250;2023-07-08T12:42:37;9.20;;;6.97;;
5454;SDS011;2750;49.050;9.250;2023-07-08T12:47:40;6.45;;;5.85;;
5454;SDS011;2750;49.050;9.250;2023-07-08T12:52:42;6.40;;;4.85;;
5454;SDS011;2750;49.050;9.250;2023-07-08T12:57:46;5.57;;;4.90;;
5454;SDS011;2750;49.050;9.250;2023-07-08T13:02:53;5.22;;;4.40;;
5454;SDS011;2750;49.050;9.250;2023-07-08T13:07:58;5.30;;;3.67;;
5454;SDS011;2750;49.050;9.250;2023-07-08T13:13:02;5.00;;;4.03;;
5454;SDS011;2750;49.050;9.250;2023-07-08T13:18:10;5.32;;;3.60;;
5454;SDS011;2750;49.050;9.250;2023-07-08T13:23:16;3.40;;;3.10;;
5454;SDS011;2750;49.050;9.250;2023-07-08T13:28:18;4.28;;;3.40;;
5454;SDS011;2750;49.050;9.250;2023-07-08T13:33:28;3.40;;;3.10;;
5454;SDS011;2750;49.050;9.250;2023-07-08T13:38:31;4.07;;;3.20;;
5454;SDS011;2750;49.050;9.250;2023-07-08T13:43:35;4.22;;;3.17;;
5454;SDS011;2750;49.050;9.250;2023-07-08T13:48:41;4.68;;;2.92;;
5454;SDS011;2750;49.050;9.250;2023-07-08T13:53:45;3.80;;;3.38;;
5454;SDS011;2750;49.050;9.250;2023-07-08T13:58:48;9.80;;;8.88;;
5454;SDS011;2750;49.050;9.250;2023-07-08T14:03:53;3.30;;;3.00;;
5454;SDS011;2750;49.050;9.250;2023-07-08T14:08:57;3.50;;;2.90;;
5454;SDS011;2750;49.050;9.250;2023-07-08T14:14:00;3.00;;;2.80;;
5454;SDS011;2750;49.050;9.250;2023-07-08T14:19:03;3.67;;;3.28;;
5454;SDS011;2750;49.050;9.250;2023-07-08T14:24:08;4.05;;;3.70;;
5454;SDS011;2750;49.050;9.250;2023-07-08T14:29:12;3.78;;;2.90;;
5454;SDS011;2750;49.050;9.250;2023-07-08T14:34:16;4.22;;;3.00;;
5454;SDS011;2750;49.050;9.250;2023-07-08T14:39:25;4.55;;;3.65;;
5454;SDS011;2750;49.050;9.250;2023-07-08T14:44:33;3.70;;;3.38;;
5454;SDS011;2750;49.050;9.250;2023-07-08T14:49:38;4.20;;;3.25;;
5454;SDS011;2750;49.050;9.250;2023-07-08T14:54:40;3.78;;;3.17;;
5454;SDS011;2750;49.050;9.250;2023-07-08T14:59:41;4.45;;;3.08;;
5454;SDS011;2750;49.050;9.250;2023-07-08T15:04:44;4.65;;;3.22;;
5454;SDS011;2750;49.050;9.250;2023-07-08T15:09:46;5.47;;;3.38;;
5454;SDS011;2750;49.050;9.250;2023-07-08T15:14:48;5.55;;;4.97;;
5454;SDS011;2750;49.050;9.250;2023-07-08T15:19:51;6.70;;;5.35;;
5454;SDS011;2750;49.050;9.250;2023-07-08T15:24:53;3.45;;;3.15;;
5454;SDS011;2750;49.050;9.250;2023-07-08T15:29:54;4.78;;;4.05;;
5454;SDS011;2750;49.050;9.250;2023-07-08T15:34:57;5.55;;;4.95;;
5454;SDS011;2750;49.050;9.250;2023-07-08T15:39:59;4.20;;;3.80;;
5454;SDS011;2750;49.050;9.250;2023-07-08T15:45:01;4.00;;;3.70;;
5454;SDS011;2750;49.050;9.250;2023-07-08T15:50:08;4.95;;;4.43;;
5454;SDS011;2750;49.050;9.250;2023-07-08T15:55:12;5.38;;;4.03;;
5454;SDS011;2750;49.050;9.250;2023-07-08T16:00:18;4.45;;;3.92;;
5454;SDS011;2750;49.050;9.250;2023-07-08T16:05:24;3.75;;;3.38;;
5454;SDS011;2750;49.050;9.250;2023-07-08T16:10:27;4.28;;;3.13;;
5454;SDS011;2750;49.050;9.250;2023-07-08T16:15:30;4.18;;;3.78;;
5454;SDS011;2750;49.050;9.250;2023-07-08T16:20:35;5.45;;;4.53;;
5454;SDS011;2750;49.050;9.250;2023-07-08T16:25:37;6.72;;;5.30;;
5454;SDS011;2750;49.050;9.250;2023-07-08T16:30:41;4.68;;;4.20;;
5454;SDS011;2750;49.050;9.250;2023-07-08T16:35:43;6.03;;;4.10;;
5454;SDS011;2750;49.050;9.250;2023-07-08T16:40:45;3.55;;;3.08;;
5454;SDS011;2750;49.050;9.250;2023-07-08T16:45:46;4.00;;;3.38;;
5454;SDS011;2750;49.050;9.250;2023-07-08T16:50:50;5.57;;;4.50;;
5454;SDS011;2750;49.050;9.250;2023-07-08T16:55:52;5.05;;;4.20;;
5454;SDS011;2750;49.050;9.250;2023-07-08T17:00:53;8.82;;;8.00;;
5454;SDS011;2750;49.050;9.250;2023-07-08T17:05:57;9.38;;;8.48;;
5454;SDS011;2750;49.050;9.250;2023-07-08T17:10:58;6.57;;;5.93;;
5454;SDS011;2750;49.050;9.250;2023-07-08T17:16:00;5.38;;;3.85;;
5454;SDS011;2750;49.050;9.250;2023-07-08T17:21:04;4.63;;;3.53;;
5454;SDS011;2750;49.050;9.250;2023-07-08T17:26:12;7.38;;;4.30;;
5454;SDS011;2750;49.050;9.250;2023-07-08T17:31:15;4.72;;;3.33;;
5454;SDS011;2750;49.050;9.250;2023-07-08T17:36:21;3.95;;;3.55;;
5454;SDS011;2750;49.050;9.250;2023-07-08T17:41:25;5.13;;;3.78;;
5454;SDS011;2750;49.050;9.250;2023-07-08T17:46:27;4.50;;;3.50;;
5454;SDS011;2750;49.050;9.250;2023-07-08T17:51:31;17.50;;;15.90;;
5454;SDS011;2750;49.050;9.250;2023-07-08T17:56:35;4.97;;;3.92;;
5454;SDS011;2750;49.050;9.250;2023-07-08T18:01:39;5.03;;;3.63;;
5454;SDS011;2750;49.050;9.250;2023-07-08T18:06:42;4.50;;;3.85;;
5454;SDS011;2750;49.050;9.250;2023-07-08T18:11:44;5.97;;;3.50;;
5454;SDS011;2750;49.050;9.250;2023-07-08T18:16:47;7.05;;;3.88;;
5454;SDS011;2750;49.050;9.250;2023-07-08T18:21:53;4.93;;;3.88;;
5454;SDS011;2750;49.050;9.250;2023-07-08T18:26:55;4.60;;;3.85;;
5454;SDS011;2750;49.050;9.250;2023-07-08T18:31:56;5.13;;;3.67;;
5454;SDS011;2750;49.050;9.250;2023-07-08T18:36:59;6.97;;;3.50;;
5454;SDS011;2750;49.050;9.250;2023-07-08T18:42:03;5.40;;;3.85;;
5454;SDS011;2750;49.050;9.250;2023-07-08T18:47:07;4.88;;;4.20;;
5454;SDS011;2750;49.050;9.250;2023-07-08T18:52:12;6.10;;;4.78;;
5454;SDS011;2750;49.050;9.250;2023-07-08T18:57:16;6.18;;;5.07;;
5454;SDS011;2750;49.050;9.250;2023-07-08T19:02:30;6.50;;;4.80;;
5454;SDS011;2750;49.050;9.250;2023-07-08T19:07:35;6.75;;;4.68;;
5454;SDS011;2750;49.050;9.250;2023-07-08T19:12:37;6.82;;;4.93;;
5454;SDS011;2750;49.050;9.250;2023-07-08T19:17:38;5.07;;;3.88;;
5454;SDS011;2750;49.050;9.250;2023-07-08T19:22:41;5.30;;;3.83;;
5454;SDS011;2750;49.050;9.250;2023-07-08T19:27:43;5.53;;;4.10;;
5454;SDS011;2750;49.050;9.250;2023-07-08T19:32:45;4.82;;;4.35;;
5454;SDS011;2750;49.050;9.250;2023-07-08T19:37:52;5.28;;;4.55;;
5454;SDS011;2750;49.050;9.250;2023-07-08T19:42:56;5.97;;;4.28;;
5454;SDS011;2750;49.050;9.250;2023-07-08T19:47:57;5.50;;;4.53;;
5454;SDS011;2750;49.050;9.250;2023-07-08T19:53:00;4.70;;;4.07;;
5454;SDS011;2750;49.050;9.250;2023-07-08T19:58:03;5.22;;;3.88;;
5454;SDS011;2750;49.050;9.250;2023-07-08T20:03:10;6.97;;;3.85;;
5454;SDS011;2750;49.050;9.250;2023-07-08T20:08:20;8.00;;;4.20;;
5454;SDS011;2750;49.050;9.250;2023-07-08T20:13:25;5.70;;;4.18;;
5454;SDS011;2750;49.050;9.250;2023-07-08T20:18:28;4.68;;;3.90;;
5454;SDS011;2750;49.050;9.250;2023-07-08T20:23:33;8.10;;;4.28;;
5454;SDS011;2750;49.050;9.250;2023-07-08T20:28:36;5.68;;;4.22;;
5454;SDS011;2750;49.050;9.250;2023-07-08T20:33:38;4.40;;;4.00;;
5454;SDS011;2750;49.050;9.250;2023-07-08T20:38:41;4.82;;;4.30;;
5454;SDS011;2750;49.050;9.250;2023-07-08T20:43:42;6.05;;;4.38;;
5454;SDS011;2750;49.050;9.250;2023-07-08T20:48:44;5.00;;;4.28;;
5454;SDS011;2750;49.050;9.250;2023-07-08T20:53:47;4.65;;;4.00;;
5454;SDS011;2750;49.050;9.250;2023-07-08T20:58:49;6.03;;;4.40;;
5454;SDS011;2750;49.050;9.250;2023-07-08T21:03:50;5.93;;;4.40;;
5454;SDS011;2750;49.050;9.250;2023-07-08T21:08:53;6.25;;;4.45;;
5454;SDS011;2750;49.050;9.250;2023-07-08T21:13:54;6.53;;;4.35;;
5454;SDS011;2750;49.050;9.250;2023-07-08T21:18:56;6.80;;;4.32;;
5454;SDS011;2750;49.050;9.250;2023-07-08T21:24:00;5.78;;;4.50;;
5454;SDS011;2750;49.050;9.250;2023-07-08T21:29:01;8.55;;;4.63;;
5454;SDS011;2750;49.050;9.250;2023-07-08T21:34:03;11.00;;;5.03;;
5454;SDS011;2750;49.050;9.250;2023-07-08T21:39:11;6.13;;;4.93;;
5454;SDS011;2750;49.050;9.250;2023-07-08T21:44:19;7.15;;;4.88;;
5454;SDS011;2750;49.050;9.250;2023-07-08T21:49:21;7.80;;;5.97;;
5454;SDS011;2750;49.050;9.250;2023-07-08T21:54:24;6.50;;;5.38;;
5454;SDS011;2750;49.050;9.250;2023-07-08T21:59:26;7.18;;;5.03;;
5454;SDS011;2750;49.050;9.250;2023-07-08T22:04:34;7.07;;;5.10;;
5454;SDS011;2750;49.050;9.250;2023-07-08T22:09:38;6.55;;;5.38;;
5454;SDS011;2750;49.050;9.250;2023-07-08T22:14:39;7.77;;;5.57;;
5454;SDS011;2750;49.050;9.250;2023-07-08T22:19:41;7.17;;;4.70;;
5454;SDS011;2750;49.050;9.250;2023-07-08T22:24:44;8.23;;;6.23;;
5454;SDS011;2750;49.050;9.250;2023-07-08T22:29:46;10.17;;;5.67;;
5454;SDS011;2750;49.050;9.250;2023-07-08T22:34:47;8.03;;;5.30;;
5454;SDS011;2750;49.050;9.250;2023-07-08T22:39:50;6.07;;;4.80;;
5454;SDS011;2750;49.050;9.250;2023-07-08T22:44:52;7.60;;;5.30;;
5454;SDS011;2750;49.050;9.250;2023-07-08T22:49:54;7.27;;;4.90;;
5454;SDS011;2750;49.050;9.250;2023-07-08T22:54:57;7.30;;;4.93;;
5454;SDS011;2750;49.050;9.250;2023-07-08T22:59:59;8.40;;;5.60;;
5454;SDS011;2750;49.050;9.250;2023-07-08T23:05:01;8.33;;;4.63;;
5454;SDS011;2750;49.050;9.250;2023-07-08T23:10:04;5.23;;;4.73;;
5454;SDS011;2750;49.050;9.250;2023-07-08T23:15:07;5.40;;;4.87;;
5454;SDS011;2750;49.050;9.250;2023-07-08T23:20:13;5.93;;;4.67;;
5454;SDS011;2750;49.050;9.250;2023-07-08T23:25:17;8.23;;;4.80;;
5454;SDS011;2750;49.050;9.250;2023-07-08T23:30:19;6.47;;;4.90;;
5454;SDS011;2750;49.050;9.250;2023-07-08T23:35:20;5.23;;;4.73;;
5454;SDS011;2750;49.050;9.250;2023-07-08T23:40:23;6.20;;;4.77;;
5454;SDS011;2750;49.050;9.250;2023-07-08T23:45:25;7.17;;;5.87;;
5454;SDS011;2750;49.050;9.250;2023-07-08T23:50:27;8.27;;;5.47;;
5454;SDS011;2750;49.050;9.250;2023-07-08T23:55:29;7.57;;;5.20;;
